Time;durP1;ratioP1;P1;durP2;ratioP2;P2;SDS_P1;SDS_P2;PMS_P1;PMS_P2;Temp;Humidity;BMP_temperature;BMP_pressure;BME280_temperature;BME280_humidity;BME280_pressure;Samples;Min_cycle;Max_cycle;Signal;HPM_P1;HPM_P2
2022/11/28 00:00:25;;;;;;;2.83;1.45;;;;;;;;;;4934371;28;20050;-85
2022/11/28 00:02:51;;;;;;;2.83;1.20;;;;;;;;;;4951417;28;20082;-85
2022/11/28 00:05:17;;;;;;;3.17;1.55;;;;;;;;;;4951583;28;20497;-83
2022/11/28 00:07:43;;;;;;;1.92;1.20;;;;;;;;;;4951622;28;20126;-83
2022/11/28 00:10:09;;;;;;;2.38;1.60;;;8.60;99.90;;;;;;4951444;28;20074;-84
2022/11/28 00:12:35;;;;;;;2.53;1.20;;;;;;;;;;4951864;28;20038;-85
2022/11/28 00:15:01;;;;;;;3.40;1.40;;;;;;;;;;4957434;28;20018;-84
2022/11/28 00:17:27;;;;;;;2.67;1.77;;;;;;;;;;4954609;28;20037;-83
2022/11/28 00:19:53;;;;;;;0.98;0.98;;;;;;;;;;4951465;28;20035;-85
2022/11/28 00:22:19;;;;;;;4.95;1.48;;;;;;;;;;4950863;28;20027;-84
2022/11/28 00:24:45;;;;;;;3.92;1.23;;;;;;;;;;4951223;28;20031;-84
2022/11/28 00:27:11;;;;;;;2.05;1.17;;;;;;;;;;4951107;28;20027;-84
2022/11/28 00:29:38;;;;;;;1.50;1.30;;;8.50;99.90;;;;;;4951569;28;20032;-84
2022/11/28 00:32:04;;;;;;;3.28;1.58;;;;;;;;;;4950849;28;20680;-84
2022/11/28 00:34:30;;;;;;;1.20;1.10;;;;;;;;;;4951183;28;20099;-84
2022/11/28 00:36:56;;;;;;;1.00;0.98;;;;;;;;;;4950782;28;20602;-83
2022/11/28 00:39:22;;;;;;;2.13;1.23;;;;;;;;;;4951187;28;20527;-85
2022/11/28 00:41:48;;;;;;;1.45;0.90;;;;;;;;;;4950903;28;20029;-84
2022/11/28 00:44:14;;;;;;;1.42;1.33;;;;;;;;;;4950368;28;20035;-85
2022/11/28 00:46:40;;;;;;;1.67;1.30;;;8.20;99.90;;;;;;4950846;28;20034;-84
2022/11/28 00:49:06;;;;;;;1.25;0.95;;;8.30;99.90;;;;;;4950473;28;20031;-84
2022/11/28 00:51:33;;;;;;;1.63;1.50;;;8.30;99.90;;;;;;4950686;28;20057;-84
2022/11/28 00:54:01;;;;;;;2.25;1.73;;;8.20;99.90;;;;;;4950766;28;20130;-84
2022/11/28 00:56:32;;;;;;;1.20;1.17;;;8.20;99.90;;;;;;4950838;28;20019;-85
2022/11/28 00:58:58;;;;;;;2.10;1.02;;;;;;;;;;4950618;28;20586;-84
2022/11/28 01:01:33;;;;;;;1.40;0.90;;;6.80;99.90;;;;;;4951162;28;20383;-85
2022/11/28 01:04:01;;;;;;;2.35;0.98;;;8.20;99.90;;;;;;4950817;28;20043;-84
2022/11/28 01:06:35;;;;;;;1.23;1.23;;;8.70;99.90;;;;;;4950531;28;20386;-83
2022/11/28 01:09:09;;;;;;;1.25;1.05;;;8.40;99.90;;;;;;4950911;28;20116;-84
2022/11/28 01:11:37;;;;;;;1.08;0.90;;;8.20;99.90;;;;;;4950684;28;20031;-84
2022/11/28 01:14:03;;;;;;;1.58;0.98;;;;;;;;;;4950245;28;20397;-84
2022/11/28 01:16:29;;;;;;;1.35;1.25;;;8.20;99.90;;;;;;4950601;28;20035;-84
2022/11/28 01:18:55;;;;;;;1.65;1.02;;;;;;;;;;4950689;28;20054;-84
2022/11/28 01:21:21;;;;;;;1.30;1.20;;;8.30;99.90;;;;;;4950614;28;20045;-83
2022/11/28 01:23:47;;;;;;;1.00;1.00;;;;;;;;;;4948735;28;20036;-84
2022/11/28 01:26:22;;;;;;;4.45;1.45;;;8.40;99.90;;;;;;4950624;28;20035;-84
2022/11/28 01:28:48;;;;;;;2.95;0.98;;;;;;;;;;4950257;28;20050;-85
2022/11/28 01:31:17;;;;;;;1.48;1.15;;;8.20;99.90;;;;;;4950929;28;20038;-84
2022/11/28 01:33:43;;;;;;;1.00;0.93;;;;;;;;;;4950414;28;20031;-84
2022/11/28 01:36:11;;;;;;;1.67;1.15;;;8.30;99.90;;;;;;4932955;29;20027;-84
2022/11/28 01:38:37;;;;;;;2.83;1.63;;;;;;;;;;4950288;28;20015;-84
2022/11/28 01:41:03;;;;;;;1.23;0.90;;;;;;;;;;4950569;28;20461;-84
2022/11/28 01:43:29;;;;;;;2.58;1.15;;;;;;;;;;4949875;28;20019;-84
2022/11/28 01:45:55;;;;;;;1.35;0.95;;;;;;;;;;4950059;28;20086;-83
2022/11/28 01:48:31;;;;;;;2.95;1.23;;;8.30;99.90;;;;;;4950068;28;20568;-82
2022/11/28 01:51:01;;;;;;;1.25;0.75;;;8.30;99.90;;;;;;4950513;28;20063;-83
2022/11/28 01:53:29;;;;;;;1.50;0.85;;;8.30;99.90;;;;;;4949986;28;20130;-84
2022/11/28 01:56:00;;;;;;;1.08;1.00;;;8.30;99.90;;;;;;4950312;28;20073;-84
2022/11/28 01:58:28;;;;;;;1.20;0.95;;;8.30;99.90;;;;;;4949944;28;20031;-84
2022/11/28 02:00:54;;;;;;;3.05;1.42;;;;;;;;;;4952696;28;20050;-84
2022/11/28 02:03:37;;;;;;;2.35;1.40;;;8.30;99.90;;;;;;4959663;28;20031;-84
2022/11/28 02:06:03;;;;;;;1.38;1.27;;;;;;;;;;4957906;28;20046;-84
2022/11/28 02:08:33;;;;;;;1.42;1.05;;;8.00;99.90;;;;;;4953713;28;20023;-85
2022/11/28 02:11:21;;;;;;;4.00;1.05;;;8.60;99.90;;;;;;4953585;28;20051;-84
2022/11/28 02:13:59;;;;;;;4.00;1.13;;;7.90;99.90;;;;;;4952853;28;20098;-85
2022/11/28 02:16:44;;;;;;;1.45;1.33;;;8.00;99.90;;;;;;4956200;28;20708;-84
2022/11/28 02:19:34;;;;;;;2.65;1.30;;;7.80;99.90;;;;;;4953498;28;20027;-84
2022/11/28 02:22:08;;;;;;;1.55;1.20;;;7.80;99.90;;;;;;4953502;28;20027;-84
2022/11/28 02:24:34;;;;;;;5.53;1.23;;;;;;;;;;4953551;28;20042;-84
2022/11/28 02:27:22;;;;;;;2.42;1.10;;;8.20;99.90;;;;;;4953155;28;20520;-84
2022/11/28 02:30:05;;;;;;;1.23;1.08;;;7.50;99.90;;;;;;4963861;28;20031;-84
2022/11/28 02:32:53;;;;;;;3.45;1.33;;;7.70;99.90;;;;;;4953271;28;20457;-84
2022/11/28 02:35:27;;;;;;;1.92;1.38;;;7.60;99.90;;;;;;4953372;28;20098;-84
2022/11/28 02:38:14;;;;;;;1.27;1.13;;;7.70;99.90;;;;;;4953390;28;20496;-84
2022/11/28 02:41:00;;;;;;;1.20;1.10;;;7.80;99.90;;;;;;4953743;28;20034;-84
2022/11/28 02:43:51;;;;;;;1.27;1.20;;;7.70;99.90;;;;;;4953025;28;20079;-85
2022/11/28 02:46:36;;;;;;;1.60;1.10;;;7.70;99.90;;;;;;4953082;28;20286;-84
2022/11/28 02:49:13;;;;;;;4.47;1.23;;;7.50;99.90;;;;;;4943338;28;20507;-84
2022/11/28 02:51:58;;;;;;;2.15;1.67;;;7.60;99.90;;;;;;4952892;28;20070;-84
2022/11/28 02:54:26;;;;;;;1.13;1.05;;;7.60;99.90;;;;;;4952735;28;20051;-84
2022/11/28 02:56:53;;;;;;;0.70;0.70;;;7.70;99.90;;;;;;4952336;28;20035;-84
2022/11/28 02:59:31;;;;;;;1.52;1.27;;;7.70;99.90;;;;;;4952845;28;20039;-84
2022/11/28 03:01:57;;;;;;;3.78;1.40;;;8.00;99.90;;;;;;4952454;28;20062;-84
2022/11/28 03:04:47;;;;;;;4.78;1.33;;;7.90;99.90;;;;;;4952369;28;20534;-85
2022/11/28 03:07:47;;;;;;;1.75;1.10;;;7.90;99.90;;;;;;4952518;28;20030;-85
2022/11/28 03:10:50;;;;;;;1.30;1.02;;;7.80;99.90;;;;;;4939512;28;20451;-84
2022/11/28 03:13:24;;;;;;;3.38;1.60;;;7.50;99.90;;;;;;4952223;28;20063;-84
2022/11/28 03:16:13;;;;;;;2.83;1.63;;;7.20;99.90;;;;;;4951771;28;20031;-84
2022/11/28 03:18:56;;;;;;;1.70;1.33;;;7.40;99.90;;;;;;4951997;28;20070;-85
2022/11/28 03:21:37;;;;;;;2.33;1.40;;;7.10;99.90;;;;;;4941492;28;20107;-84
2022/11/28 03:24:26;;;;;;;7.70;1.42;;;8.90;99.90;;;;;;4952153;28;20043;-85
2022/11/28 03:27:16;;;;;;;3.10;1.60;;;7.30;99.90;;;;;;4952112;28;20094;-84
2022/11/28 03:29:59;;;;;;;2.03;1.48;;;7.50;99.90;;;;;;4961951;28;20050;-84
2022/11/28 03:32:35;;;;;;;1.30;1.20;;;7.30;99.90;;;;;;4952090;28;20027;-84
2022/11/28 03:35:09;;;;;;;7.03;1.77;;;6.50;99.90;;;;;;4951773;28;20114;-85
2022/11/28 03:37:40;;;;;;;2.22;1.23;;;7.70;99.90;;;;;;4952208;28;20031;-85
2022/11/28 03:40:11;;;;;;;6.18;2.08;;;7.60;99.90;;;;;;4935937;28;20035;-84
2022/11/28 03:42:42;;;;;;;2.30;1.63;;;7.50;99.90;;;;;;4934730;29;20027;-85
2022/11/28 03:45:18;;;;;;;1.48;1.30;;;9.70;99.90;;;;;;4951225;28;20468;-84
2022/11/28 03:47:51;;;;;;;1.58;1.15;;;7.60;99.90;;;;;;4934498;29;20031;-83
2022/11/28 03:50:25;;;;;;;3.45;1.63;;;7.90;99.90;;;;;;4946206;28;20035;-84
2022/11/28 03:52:58;;;;;;;4.15;1.35;;;7.80;99.90;;;;;;4951461;28;20465;-85
2022/11/28 03:55:32;;;;;;;4.10;1.50;;;7.70;99.90;;;;;;4951439;28;20035;-84
2022/11/28 03:58:19;;;;;;;1.55;1.45;;;8.00;99.90;;;;;;4951557;28;20033;-84
2022/11/28 04:01:05;;;;;;;3.13;1.52;;;8.10;99.90;;;;;;4951552;28;20027;-83
2022/11/28 04:04:08;;;;;;;1.05;0.95;;;7.30;99.90;;;;;;4951258;28;20081;-84
2022/11/28 04:06:52;;;;;;;1.38;1.27;;;8.10;99.90;;;;;;4951610;28;20075;-84
2022/11/28 04:09:29;;;;;;;1.00;1.00;;;8.00;99.90;;;;;;4951406;28;20118;-84
2022/11/28 04:12:03;;;;;;;1.65;1.20;;;7.90;99.90;;;;;;4934184;28;20781;-84
2022/11/28 04:14:35;;;;;;;1.05;0.93;;;8.40;99.90;;;;;;4950871;28;20045;-84
2022/11/28 04:17:14;;;;;;;0.80;0.80;;;8.60;99.90;;;;;;4953716;28;20497;-85
2022/11/28 04:19:49;;;;;;;1.42;0.70;;;8.90;99.90;;;;;;4951602;28;20035;-84
2022/11/28 04:22:29;;;;;;;0.60;0.60;;;9.00;99.90;;;;;;4950943;28;20019;-84
2022/11/28 04:25:10;;;;;;;0.70;0.70;;;9.40;99.90;;;;;;4950379;28;20043;-84
2022/11/28 04:27:46;;;;;;;0.70;0.70;;;9.60;99.90;;;;;;4951271;28;20093;-84
2022/11/28 04:30:12;;;;;;;0.63;0.63;;;9.60;99.90;;;;;;4951049;28;20038;-84
2022/11/28 04:32:44;;;;;;;1.17;1.00;;;9.50;99.90;;;;;;4951276;28;20078;-84
2022/11/28 04:35:19;;;;;;;1.35;0.80;;;9.40;99.90;;;;;;4951162;28;20039;-85
2022/11/28 04:37:47;;;;;;;0.65;0.65;;;9.40;99.90;;;;;;4951101;28;20035;-85
2022/11/28 04:40:14;;;;;;;1.35;1.05;;;9.30;99.90;;;;;;4950771;28;20114;-85
2022/11/28 04:43:03;;;;;;;1.10;1.00;;;9.20;99.90;;;;;;4951216;28;20038;-85
2022/11/28 04:45:35;;;;;;;0.90;0.90;;;9.20;99.90;;;;;;4949991;28;20039;-84
2022/11/28 04:48:01;;;;;;;2.80;0.90;;;;;;;;;;4950906;28;20050;-85
2022/11/28 04:51:01;;;;;;;0.90;0.90;;;9.10;99.90;;;;;;4963262;28;20073;-84
2022/11/28 04:53:51;;;;;;;1.88;1.00;;;9.10;99.90;;;;;;4890543;29;20053;-85
2022/11/28 04:56:42;;;;;;;1.65;1.35;;;8.80;99.90;;;;;;4887790;29;20049;-85
2022/11/28 04:59:10;;;;;;;1.10;1.00;;;9.00;99.90;;;;;;4880674;29;20043;-85
2022/11/28 05:01:37;;;;;;;1.08;1.08;;;9.00;99.90;;;;;;4895337;29;20043;-85
2022/11/28 05:04:03;;;;;;;1.20;1.10;;;;;;;;;;4891166;29;20041;-85
2022/11/28 05:06:34;;;;;;;0.85;0.85;;;9.00;99.90;;;;;;4890921;29;20028;-84
2022/11/28 05:09:00;;;;;;;5.45;0.90;;;9.40;99.90;;;;;;4890845;29;20029;-85
2022/11/28 05:11:26;;;;;;;1.70;1.00;;;;;;;;;;4891108;29;20225;-85
2022/11/28 05:13:53;;;;;;;1.63;1.52;;;8.90;99.90;;;;;;4890648;29;20061;-85
2022/11/28 05:16:19;;;;;;;1.48;1.10;;;;;;;;;;4890955;29;20119;-86
2022/11/28 05:18:45;;;;;;;2.35;1.60;;;;;;;;;;4890970;29;20120;-86
2022/11/28 05:21:12;;;;;;;0.85;0.85;;;8.90;99.90;;;;;;4878627;29;20092;-86
2022/11/28 05:23:40;;;;;;;0.90;0.90;;;8.80;99.90;;;;;;4891091;29;20500;-85
2022/11/28 05:26:07;;;;;;;1.02;1.02;;;8.70;99.90;;;;;;4887613;29;20123;-86
2022/11/28 05:28:33;;;;;;;1.30;1.20;;;;;;;;;;4882348;29;20123;-86
2022/11/28 05:31:00;;;;;;;1.25;1.13;;;10.90;99.90;;;;;;4931574;28;20126;-85
2022/11/28 05:33:27;;;;;;;1.90;1.30;;;8.70;99.90;;;;;;4943362;28;20108;-86
2022/11/28 05:35:53;;;;;;;1.88;1.00;;;;;;;;;;4950721;28;20039;-86
2022/11/28 05:38:19;;;;;;;1.05;0.90;;;;;;;;;;4954128;28;20074;-86
2022/11/28 05:40:45;;;;;;;1.25;1.10;;;;;;;;;;4953955;28;20039;-86
2022/11/28 05:43:11;;;;;;;1.67;1.38;;;;;;;;;;4954049;28;20532;-86
2022/11/28 05:45:44;;;;;;;1.73;1.02;;;8.90;99.90;;;;;;4953438;28;20039;-86
2022/11/28 05:48:10;;;;;;;0.80;0.80;;;;;;;;;;4954017;28;20055;-87
2022/11/28 05:50:38;;;;;;;1.83;0.88;;;8.90;99.90;;;;;;4954012;28;20035;-86
2022/11/28 05:53:04;;;;;;;1.10;1.10;;;;;;;;;;4953927;28;20086;-85
2022/11/28 05:55:30;;;;;;;0.70;0.70;;;;;;;;;;4953474;28;20046;-86
2022/11/28 05:57:57;;;;;;;2.70;1.13;;;;;;;;;;4944098;29;20459;-86
2022/11/28 06:00:23;;;;;;;0.65;0.65;;;;;;;;;;4954038;28;20090;-85
2022/11/28 06:02:49;;;;;;;1.60;0.95;;;;;;;;;;4954168;28;20031;-87
2022/11/28 06:05:15;;;;;;;1.00;0.90;;;;;;;;;;4950201;28;20059;-87
2022/11/28 06:07:41;;;;;;;1.35;1.00;;;;;;;;;;4950284;28;20027;-87
2022/11/28 06:10:08;;;;;;;1.27;1.17;;;;;;;;;;4953630;28;20427;-85
2022/11/28 06:12:33;;;;;;;1.20;1.10;;;8.80;99.90;;;;;;4953358;28;20023;-85
2022/11/28 06:14:59;;;;;;;0.80;0.80;;;;;;;;;;4952507;28;20516;-86
2022/11/28 06:17:25;;;;;;;1.83;1.25;;;;;;;;;;4953203;28;20049;-86
2022/11/28 06:19:51;;;;;;;4.10;1.83;;;;;;;;;;4953003;28;20445;-85
2022/11/28 06:22:17;;;;;;;7.15;2.88;;;;;;;;;;4952786;28;20015;-84
2022/11/28 06:24:43;;;;;;;2.03;1.50;;;;;;;;;;4954699;28;20416;-85
2022/11/28 06:27:09;;;;;;;1.58;1.48;;;;;;;;;;4946039;28;20035;-82
2022/11/28 06:29:35;;;;;;;1.60;1.20;;;;;;;;;;4949077;28;20031;-80
2022/11/28 06:32:01;;;;;;;1.30;1.20;;;;;;;;;;4951602;28;20029;-79
2022/11/28 06:34:27;;;;;;;2.08;1.90;;;;;;;;;;4947077;28;20085;-79
2022/11/28 06:36:53;;;;;;;4.53;1.77;;;;;;;;;;4950162;28;20019;-80
2022/11/28 06:39:19;;;;;;;6.72;3.28;;;;;;;;;;4950358;28;20097;-79
2022/11/28 06:41:45;;;;;;;4.88;2.83;;;;;;;;;;4949683;28;20023;-80
2022/11/28 06:44:14;;;;;;;8.07;4.18;;;8.60;99.90;;;;;;4946541;28;20062;-80
2022/11/28 06:46:41;;;;;;;7.18;4.55;;;;;;;;;;4946708;28;20519;-79
2022/11/28 06:49:07;;;;;;;7.32;3.88;;;;;;;;;;4950681;28;20027;-79
2022/11/28 06:51:33;;;;;;;4.78;2.97;;;;;;;;;;4951184;28;20453;-79
2022/11/28 06:53:59;;;;;;;3.35;2.63;;;;;;;;;;4932865;29;20078;-79
2022/11/28 06:56:24;;;;;;;3.25;1.90;;;8.70;99.90;;;;;;4951280;28;20509;-80
2022/11/28 06:58:56;;;;;;;4.35;2.38;;;8.90;99.90;;;;;;4949929;28;20023;-80
2022/11/28 07:01:23;;;;;;;3.78;2.58;;;8.80;99.90;;;;;;4951769;28;20123;-79
2022/11/28 07:03:50;;;;;;;2.22;1.95;;;;;;;;;;4948332;28;20024;-79
2022/11/28 07:06:18;;;;;;;4.18;2.20;;;6.70;99.90;;;;;;4950413;28;20493;-81
2022/11/28 07:08:43;;;;;;;;;;;8.70;99.90;;;;;;4934111;28;20404;-80
2022/11/28 07:11:19;;;;;;;2.78;2.08;;;8.70;99.90;;;;;;4942262;28;19910;-77
2022/11/28 07:13:46;;;;;;;3.42;2.20;;;8.70;99.90;;;;;;4945761;28;20551;-76
2022/11/28 07:16:14;;;;;;;1.95;1.75;;;8.70;99.90;;;;;;4950477;28;20019;-82
2022/11/28 07:18:41;;;;;;;5.20;2.38;;;;;;;;;;4950083;28;20095;-81
2022/11/28 07:21:07;;;;;;;4.38;3.13;;;;;;;;;;4947162;28;20115;-78
2022/11/28 07:23:32;;;;;;;2.70;2.30;;;;;;;;;;4951201;28;20602;-77
2022/11/28 07:25:59;;;;;;;2.03;1.88;;;8.80;99.90;;;;;;4951470;28;20039;-76
2022/11/28 07:28:27;;;;;;;4.43;2.40;;;8.70;99.90;;;;;;4947534;28;20626;-76
2022/11/28 07:31:16;;;;;;;2.65;2.05;;;8.80;99.90;;;;;;4950837;28;20035;-76
2022/11/28 07:33:43;;;;;;;5.30;1.50;;;8.80;99.90;;;;;;4944846;28;20031;-75
2022/11/28 07:36:10;;;;;;;;;;;8.80;99.90;;;;;;4950119;28;20075;-75
2022/11/28 07:38:36;;;;;;;1.85;1.38;;;;;;;;;;4948980;28;19914;-76
2022/11/28 07:41:07;;;;;;;1.80;1.55;;;8.80;99.90;;;;;;4949401;28;20577;-76
2022/11/28 07:43:33;;;;;;;1.70;1.60;;;;;;;;;;4956799;28;20035;-77
2022/11/28 07:45:59;;;;;;;3.70;1.70;;;;;;;;;;4950972;28;20408;-75
2022/11/28 07:48:25;;;;;;;1.52;1.42;;;;;;;;;;4949864;28;20102;-76
2022/11/28 07:50:51;;;;;;;1.92;1.50;;;8.90;99.90;;;;;;4950027;28;20575;-75
2022/11/28 07:53:17;;;;;;;3.28;1.73;;;9.00;99.90;;;;;;4950080;28;20122;-76
2022/11/28 07:55:42;;;;;;;5.72;2.10;;;;;;;;;;4950372;28;20035;-77
2022/11/28 07:58:08;;;;;;;3.35;2.08;;;;;;;;;;4948688;28;20497;-78
2022/11/28 08:00:34;;;;;;;2.65;1.85;;;;;;;;;;4950401;28;20111;-78
2022/11/28 08:03:00;;;;;;;2.17;1.63;;;;;;;;;;4950316;28;20031;-79
2022/11/28 08:05:26;;;;;;;3.17;2.33;;;;;;;;;;4950192;28;20042;-78
2022/11/28 08:07:52;;;;;;;2.60;1.90;;;;;;;;;;4950234;28;20027;-78
2022/11/28 08:10:19;;;;;;;2.90;2.00;;;;;;;;;;4950007;28;20081;-78
2022/11/28 08:12:45;;;;;;;2.45;2.20;;;;;;;;;;4950159;28;20063;-79
2022/11/28 08:15:11;;;;;;;4.00;2.10;;;;;;;;;;4948573;28;20039;-78
2022/11/28 08:17:37;;;;;;;2.65;2.35;;;;;;;;;;4949237;28;20046;-78
2022/11/28 08:20:03;;;;;;;5.90;2.58;;;;;;;;;;4948223;28;20031;-79
2022/11/28 08:22:29;;;;;;;4.07;2.88;;;;;;;;;;4949498;28;20043;-78
2022/11/28 08:24:55;;;;;;;2.05;1.83;;;;;;;;;;4951689;28;20621;-79
2022/11/28 08:27:21;;;;;;;3.95;2.45;;;;;;;;;;4947482;28;20011;-78
2022/11/28 08:29:47;;;;;;;7.05;3.63;;;;;;;;;;4948996;28;20039;-78
2022/11/28 08:32:13;;;;;;;5.80;2.67;;;;;;;;;;4947474;28;20023;-76
2022/11/28 08:34:38;;;;;;;12.50;4.50;;;;;;;;;;4949680;28;20518;-76
2022/11/28 08:37:04;;;;;;;4.80;2.20;;;;;;;;;;4949435;28;20012;-77
2022/11/28 08:39:31;;;;;;;6.47;2.33;;;;;;;;;;4949110;28;20035;-77
2022/11/28 08:41:58;;;;;;;8.38;3.30;;;;;;;;;;4949657;28;20038;-77
2022/11/28 08:44:24;;;;;;;7.50;3.83;;;;;;;;;;4948648;28;20409;-77
2022/11/28 08:46:50;;;;;;;5.43;3.35;;;9.30;99.90;;;;;;4948998;28;20209;-78
2022/11/28 08:49:16;;;;;;;12.68;6.40;;;;;;;;;;4949685;28;20511;-77
2022/11/28 08:51:41;;;;;;;20.98;10.50;;;;;;;;;;4948880;28;20102;-77
2022/11/28 08:54:07;;;;;;;14.52;8.52;;;;;;;;;;4949316;28;20175;-78
2022/11/28 08:56:33;;;;;;;25.63;12.18;;;9.30;99.90;;;;;;4949302;28;20108;-77
2022/11/28 08:59:00;;;;;;;30.45;12.90;;;;;;;;;;4949395;28;20027;-77
2022/11/28 09:01:26;;;;;;;10.85;7.10;;;;;;;;;;4949364;28;20039;-79
2022/11/28 09:03:54;;;;;;;11.25;5.07;;;9.30;99.90;;;;;;4947185;28;20046;-77
2022/11/28 09:06:20;;;;;;;;;;;9.30;99.90;;;;;;4949134;28;20613;-77
2022/11/28 09:08:46;;;;;;;14.52;7.95;;;;;;;;;;4948885;28;19910;-77
2022/11/28 09:11:14;;;;;;;16.38;7.93;;;9.50;99.90;;;;;;4948168;28;20030;-77
2022/11/28 09:13:40;;;;;;;8.30;5.60;;;;;;;;;;4949038;28;20027;-77
2022/11/28 09:16:06;;;;;;;8.32;4.95;;;9.70;99.90;;;;;;4949569;28;20147;-76
2022/11/28 09:18:32;;;;;;;8.45;5.40;;;10.20;99.90;;;;;;4949203;28;20063;-75
2022/11/28 09:21:02;;;;;;;11.50;6.80;;;10.00;99.90;;;;;;4948798;28;20996;-77
2022/11/28 09:23:28;;;;;;;13.63;6.82;;;9.80;99.90;;;;;;4949683;28;20031;-76
2022/11/28 09:25:54;;;;;;;10.63;5.30;;;;;;;;;;4945494;28;20047;-77
2022/11/28 09:28:20;;;;;;;11.27;6.38;;;;;;;;;;4948861;28;20023;-77
2022/11/28 09:30:46;;;;;;;9.25;4.57;;;;;;;;;;4945246;28;20093;-77
2022/11/28 09:33:12;;;;;;;7.20;3.95;;;;;;;;;;4948032;28;20753;-77
2022/11/28 09:35:39;;;;;;;4.78;3.47;;;10.00;99.90;;;;;;4945591;28;20027;-76
2022/11/28 09:38:05;;;;;;;5.57;3.83;;;;;;;;;;4946765;28;20041;-77
2022/11/28 09:40:39;;;;;;;5.20;3.92;;;10.10;99.90;;;;;;4948444;28;20492;-77
2022/11/28 09:43:34;;;;;;;4.07;3.17;;;10.20;99.90;;;;;;4948623;28;20118;-77
2022/11/28 09:46:04;;;;;;;3.55;3.08;;;10.00;99.90;;;;;;4944575;28;20067;-76
2022/11/28 09:48:37;;;;;;;5.03;3.33;;;10.20;99.90;;;;;;4948664;28;20027;-77
2022/11/28 09:51:24;;;;;;;3.95;3.00;;;10.20;99.90;;;;;;4948654;28;20038;-78
2022/11/28 09:54:14;;;;;;;7.93;3.67;;;10.20;99.90;;;;;;4948725;28;20130;-78
2022/11/28 09:56:40;;;;;;;2.47;2.28;;;;;;;;;;4945954;28;20038;-77
2022/11/28 09:59:15;;;;;;;5.78;2.72;;;10.20;99.90;;;;;;4948625;28;20122;-78
2022/11/28 10:02:13;;;;;;;4.07;2.80;;;10.50;99.90;;;;;;4948364;28;20039;-78
2022/11/28 10:04:49;;;;;;;3.42;2.60;;;10.30;99.90;;;;;;4946962;28;20059;-76
2022/11/28 10:07:14;;;;;;;3.33;2.53;;;;;;;;;;4948675;28;20114;-76
2022/11/28 10:10:18;;;;;;;9.07;3.28;;;10.00;99.90;;;;;;4945579;28;20110;-76
2022/11/28 10:12:57;;;;;;;3.95;2.75;;;10.70;99.90;;;;;;4947684;28;20038;-76
2022/11/28 10:15:41;;;;;;;5.05;2.63;;;10.80;99.90;;;;;;4950295;28;20035;-76
2022/11/28 10:18:42;;;;;;;3.63;2.70;;;10.70;99.90;;;;;;4948146;28;20023;-76
2022/11/28 10:21:31;;;;;;;3.45;3.13;;;11.00;99.90;;;;;;4948585;28;20089;-76
2022/11/28 10:24:01;;;;;;;8.45;3.22;;;11.00;99.90;;;;;;4946726;28;20149;-76
2022/11/28 10:26:40;;;;;;;2.58;2.38;;;11.30;99.90;;;;;;4951542;28;20027;-76
2022/11/28 10:29:26;;;;;;;4.93;2.63;;;11.60;99.90;;;;;;4952103;28;20389;-76
2022/11/28 10:31:57;;;;;;;4.00;3.03;;;11.80;99.90;;;;;;4951090;28;20042;-76
2022/11/28 10:34:33;;;;;;;3.08;2.85;;;11.90;99.90;;;;;;4951534;28;20039;-76
2022/11/28 10:37:10;;;;;;;3.20;2.30;;;11.80;99.90;;;;;;4952205;28;20039;-77
2022/11/28 10:39:43;;;;;;;2.95;2.75;;;11.80;99.90;;;;;;4951916;28;20035;-77
2022/11/28 10:42:17;;;;;;;2.88;2.58;;;11.70;99.90;;;;;;4933710;28;20049;-76
2022/11/28 10:45:01;;;;;;;2.83;2.60;;;11.70;99.90;;;;;;4950574;28;20138;-76
2022/11/28 10:47:42;;;;;;;3.15;2.28;;;11.30;99.90;;;;;;4950186;28;20512;-76
2022/11/28 10:50:15;;;;;;;8.02;2.65;;;11.20;99.90;;;;;;4951459;28;20031;-76
2022/11/28 10:52:47;;;;;;;2.85;2.60;;;11.10;99.90;;;;;;4950130;28;20055;-76
2022/11/28 10:55:34;;;;;;;3.42;3.13;;;11.00;99.90;;;;;;4951129;28;20030;-76
2022/11/28 10:58:21;;;;;;;3.50;2.58;;;11.00;99.90;;;;;;4951733;28;20110;-77
2022/11/28 11:00:49;;;;;;;;;;;11.20;99.90;;;;;;4940553;28;20560;-76
2022/11/28 11:03:25;;;;;;;2.95;1.80;;;11.40;99.90;;;;;;4932723;28;19911;-77
2022/11/28 11:05:51;;;;;;;2.05;1.50;;;11.40;99.90;;;;;;4951460;28;20767;-76
2022/11/28 11:08:22;;;;;;;6.03;3.83;;;11.20;99.90;;;;;;4951059;28;20027;-76
2022/11/28 11:10:51;;;;;;;6.05;3.67;;;10.90;99.90;;;;;;4950649;28;20031;-76
2022/11/28 11:13:24;;;;;;;9.25;5.78;;;10.60;99.90;;;;;;4950757;28;20043;-76
2022/11/28 11:16:03;;;;;;;5.75;3.80;;;10.40;99.90;;;;;;4950536;28;20019;-76
2022/11/28 11:18:45;;;;;;;4.68;4.07;;;10.50;99.90;;;;;;4951019;28;20106;-76
2022/11/28 11:21:18;;;;;;;2.15;1.92;;;10.00;99.90;;;;;;4950835;28;20027;-77
2022/11/28 11:23:45;;;;;;;4.82;2.78;;;;;;;;;;4950909;28;20044;-76
2022/11/28 11:26:44;;;;;;;11.70;3.63;;;10.30;99.90;;;;;;4950522;28;20524;-77
2022/11/28 11:29:39;;;;;;;6.13;3.25;;;10.30;99.90;;;;;;4891060;29;20047;-77
2022/11/28 11:32:16;;;;;;;1.83;1.70;;;10.40;99.90;;;;;;4886227;29;20200;-77
2022/11/28 11:34:44;;;;;;;1.45;1.35;;;10.40;99.90;;;;;;4891236;29;20028;-76
2022/11/28 11:37:19;;;;;;;1.83;1.65;;;10.40;99.90;;;;;;4891326;29;20533;-77
2022/11/28 11:39:50;;;;;;;3.92;2.30;;;10.40;99.90;;;;;;4890880;29;20043;-76
2022/11/28 11:42:25;;;;;;;1.15;1.15;;;10.50;99.90;;;;;;4893186;29;20426;-76
2022/11/28 11:44:51;;;;;;;1.42;1.33;;;;;;;;;;4890111;29;20146;-76
2022/11/28 11:47:17;;;;;;;2.35;1.70;;;10.60;99.90;;;;;;4890974;29;20042;-76
2022/11/28 11:49:49;;;;;;;1.98;1.75;;;10.70;99.90;;;;;;4890685;29;20037;-75
2022/11/28 11:52:24;;;;;;;1.65;1.42;;;10.80;99.90;;;;;;4890713;29;20066;-76
2022/11/28 11:55:12;;;;;;;1.67;1.50;;;10.80;99.90;;;;;;4890139;29;20040;-76
2022/11/28 11:57:43;;;;;;;1.30;1.20;;;10.90;99.90;;;;;;4890675;29;20041;-76
2022/11/28 12:00:09;;;;;;;1.65;1.38;;;;;;;;;;4902081;29;20116;-75
2022/11/28 12:02:50;;;;;;;2.15;1.35;;;11.50;99.90;;;;;;4890818;29;20107;-76
2022/11/28 12:05:30;;;;;;;1.42;1.30;;;11.20;99.90;;;;;;4932443;28;20047;-76
2022/11/28 12:08:04;;;;;;;1.67;1.50;;;11.10;99.90;;;;;;4950329;28;20541;-78
2022/11/28 12:10:34;;;;;;;2.25;2.15;;;11.30;99.90;;;;;;4932393;29;20135;-80
2022/11/28 12:13:01;;;;;;;1.63;1.52;;;11.10;99.90;;;;;;4932967;28;20028;-77
2022/11/28 12:15:55;;;;;;;1.40;1.33;;;10.80;99.90;;;;;;4956268;28;20256;-77
2022/11/28 12:18:41;;;;;;;1.60;1.50;;;11.20;99.90;;;;;;4946267;28;20035;-77
2022/11/28 12:21:12;;;;;;;1.55;1.45;;;11.00;99.90;;;;;;4950090;28;20023;-78
2022/11/28 12:23:38;;;;;;;1.95;1.65;;;;;;;;;;4949692;28;20480;-78
2022/11/28 12:26:27;;;;;;;1.42;1.42;;;11.20;99.90;;;;;;4950461;28;20038;-78
2022/11/28 12:29:18;;;;;;;7.53;2.17;;;11.20;99.90;;;;;;4964448;28;20035;-78
2022/11/28 12:31:49;;;;;;;7.53;3.28;;;11.30;99.90;;;;;;4949714;28;20138;-78
2022/11/28 12:34:33;;;;;;;3.28;3.00;;;11.10;99.90;;;;;;4950049;28;20030;-78
2022/11/28 12:37:37;;;;;;;4.13;1.98;;;11.20;99.90;;;;;;4949960;28;20029;-78
2022/11/28 12:40:27;;;;;;;1.60;1.50;;;11.10;99.90;;;;;;4941442;28;20027;-77
2022/11/28 12:43:17;;;;;;;2.15;1.73;;;11.10;99.90;;;;;;4949811;28;20114;-77
2022/11/28 12:46:11;;;;;;;3.60;2.58;;;11.20;99.90;;;;;;4948004;28;20144;-78
2022/11/28 12:48:37;;;;;;;4.43;2.60;;;;;;;;;;4949398;28;20035;-78
2022/11/28 12:51:31;;;;;;;4.15;2.22;;;11.00;99.90;;;;;;4949784;28;20019;-78
2022/11/28 12:54:02;;;;;;;2.85;2.53;;;11.10;99.90;;;;;;4906954;29;20055;-76
2022/11/28 12:56:35;;;;;;;2.83;1.95;;;10.90;99.90;;;;;;4908174;29;20040;-77
2022/11/28 12:59:01;;;;;;;2.15;2.00;;;;;;;;;;4901374;29;20047;-76
2022/11/28 13:01:48;;;;;;;3.45;2.35;;;11.10;99.90;;;;;;4908353;29;20112;-76
2022/11/28 13:04:49;;;;;;;2.45;2.22;;;11.10;99.90;;;;;;4908223;29;20083;-77
2022/11/28 13:07:20;;;;;;;4.68;2.70;;;11.30;99.90;;;;;;4863712;29;20037;-77
2022/11/28 13:09:59;;;;;;;2.00;1.90;;;11.00;99.90;;;;;;4864047;29;20077;-76
2022/11/28 13:12:44;;;;;;;4.00;2.15;;;11.10;99.90;;;;;;4852723;29;20732;-79
2022/11/28 13:15:10;;;;;;;4.97;2.53;;;;;;;;;;4852362;29;20030;-78
2022/11/28 13:18:07;;;;;;;9.35;2.83;;;11.00;99.90;;;;;;4852633;29;20080;-79
2022/11/28 13:20:50;;;;;;;3.63;2.60;;;10.90;99.90;;;;;;4797930;29;20083;-79
2022/11/28 13:23:32;;;;;;;4.07;2.22;;;10.90;99.90;;;;;;4797868;29;20031;-78
2022/11/28 13:26:29;;;;;;;7.38;2.47;;;11.00;99.90;;;;;;4797916;29;20051;-79
2022/11/28 13:29:06;;;;;;;3.88;2.05;;;11.00;99.90;;;;;;4761921;30;20047;-79
2022/11/28 13:31:32;;;;;;;3.08;1.65;;;;;;;;;;4761591;30;20438;-80
2022/11/28 13:33:59;;;;;;;2.60;2.35;;;11.10;99.90;;;;;;4762191;30;20044;-81
2022/11/28 13:36:33;;;;;;;3.63;2.50;;;11.50;99.90;;;;;;4761675;30;20073;-81
2022/11/28 13:39:29;;;;;;;4.88;2.00;;;10.80;99.90;;;;;;4761111;30;20625;-76
2022/11/28 13:42:11;;;;;;;3.50;2.20;;;10.90;99.90;;;;;;4761798;30;20040;-79
2022/11/28 13:44:37;;;;;;;4.60;2.20;;;;;;;;;;4803597;29;20102;-80
2022/11/28 13:47:21;;;;;;;3.80;1.98;;;10.80;99.90;;;;;;4820602;29;20171;-79
2022/11/28 13:49:47;;;;;;;3.88;2.33;;;11.00;99.90;;;;;;4815580;29;20191;-80
2022/11/28 13:52:18;;;;;;;2.25;1.85;;;10.90;99.90;;;;;;4815552;29;20821;-81
2022/11/28 13:54:52;;;;;;;5.13;2.47;;;11.00;99.90;;;;;;4830543;29;20501;-80
2022/11/28 13:57:28;;;;;;;2.13;1.95;;;10.70;99.90;;;;;;4860336;29;20029;-81
2022/11/28 14:00:02;;;;;;;2.00;1.80;;;11.00;99.90;;;;;;4892411;29;20131;-81